Time,TemperatureF,DewpointF,PressureIn,WindDirection,WindDirectionDegrees,WindSpeedMPH,WindSpeedGustMPH,Humidity,HourlyPrecipIn,Conditions,Clouds,dailyrainin,SoftwareType,DateUTC
2013-04-04 00:00:00,56.5,47.9,30.01,NW,315,0.0,0.0,73,0.00,,,0.00,WUHU21623XXSP,2013-04-04 04:00:00,
2013-04-04 00:05:00,56.1,47.6,30.02,NW,315,0.0,0.0,73,0.00,,,0.00,WUHU21623XXSP,2013-04-04 04:05:00,
2013-04-04 00:10:00,55.9,47.7,30.02,NW,315,0.0,0.0,74,0.00,,,0.00,WUHU21623XXSP,2013-04-04 04:10:00,
2013-04-04 00:15:00,55.9,47.7,30.02,NNW,337,0.0,0.0,74,0.00,,,0.00,WUHU21623XXSP,2013-04-04 04:15:00,
2013-04-04 00:20:00,55.6,47.7,30.02,NNW,337,0.0,0.0,75,0.00,,,0.00,WUHU21623XXSP,2013-04-04 04:20:00,
2013-04-04 00:25:00,55.4,47.6,30.02,NNW,337,0.0,0.0,75,0.00,,,0.00,WUHU21623XXSP,2013-04-04 04:25:00,
2013-04-04 00:30:00,55.2,47.4,30.02,NNW,337,0.0,0.0,75,0.00,,,0.00,WUHU21623XXSP,2013-04-04 04:30:00,
2013-04-04 00:35:00,55.2,47.7,30.02,NNW,337,0.0,0.0,76,0.00,,,0.00,WUHU21623XXSP,2013-04-04 04:35:00,
2013-04-04 00:40:00,55.0,47.6,30.03,NNW,337,0.0,0.0,76,0.00,,,0.00,WUHU21623XXSP,2013-04-04 04:40:00,
2013-04-04 00:45:00,55.0,47.9,30.03,NNW,337,0.0,0.0,77,0.00,,,0.00,WUHU21623XXSP,2013-04-04 04:45:00,
2013-04-04 00:50:00,54.7,47.6,30.03,NNW,337,0.0,0.0,77,0.00,,,0.00,WUHU21623XXSP,2013-04-04 04:50:00,
2013-04-04 00:55:00,54.7,47.6,30.03,NNW,337,0.0,0.0,77,0.00,,,0.00,WUHU21623XXSP,2013-04-04 04:55:00,
2013-04-04 01:00:00,54.5,47.4,30.03,NNW,337,0.0,0.0,77,0.00,,,0.00,WUHU21623XXSP,2013-04-04 05:00:00,
2013-04-04 01:05:00,54.3,47.6,30.03,NNW,337,0.0,0.0,78,0.00,,,0.00,WUHU21623XXSP,2013-04-04 05:05:00,
2013-04-04 01:10:00,54.3,47.6,30.03,NNW,337,0.0,0.0,78,0.00,,,0.00,WUHU21623XXSP,2013-04-04 05:10:00,
2013-04-04 01:15:00,54.1,47.4,30.03,NNW,337,0.0,0.0,78,0.00,,,0.00,WUHU21623XXSP,2013-04-04 05:15:00,
2013-04-04 01:20:00,54.0,47.6,30.02,NNW,337,0.0,0.0,79,0.00,,,0.00,WUHU21623XXSP,2013-04-04 05:20:00,
2013-04-04 01:25:00,53.8,47.5,30.03,NNW,337,0.0,0.0,79,0.00,,,0.00,WUHU21623XXSP,2013-04-04 05:25:00,
2013-04-04 01:30:00,53.8,47.5,30.02,NNW,337,0.0,0.0,79,0.00,,,0.00,WUHU21623XXSP,2013-04-04 05:30:00,
2013-04-04 01:35:00,53.8,47.5,30.03,NNW,337,0.0,0.0,79,0.00,,,0.00,WUHU21623XXSP,2013-04-04 05:35:00,
2013-04-04 01:40:00,53.6,47.7,30.02,NNW,337,0.0,0.0,80,0.00,,,0.00,WUHU21623XXSP,2013-04-04 05:40:00,
2013-04-04 01:45:00,53.4,47.5,30.02,NNW,337,0.0,0.0,80,0.00,,,0.00,WUHU21623XXSP,2013-04-04 05:45:00,
2013-04-04 01:50:00,53.4,47.5,30.02,NNW,337,0.0,0.0,80,0.00,,,0.00,WUHU21623XXSP,2013-04-04 05:50:00,
2013-04-04 01:55:00,53.6,47.7,30.02,NNW,337,0.0,0.0,80,0.00,,,0.00,WUHU21623XXSP,2013-04-04 05:55:00,
2013-04-04 02:00:00,53.8,47.8,30.02,NNW,337,0.0,0.0,80,0.00,,,0.00,WUHU21623XXSP,2013-04-04 06:00:00,
2013-04-04 02:05:00,53.8,47.8,30.03,NNW,337,0.0,0.0,80,0.00,,,0.00,WUHU21623XXSP,2013-04-04 06:05:00,
2013-04-04 02:10:00,53.8,47.8,30.02,NNW,337,0.0,0.0,80,0.00,,,0.00,WUHU21623XXSP,2013-04-04 06:10:00,
2013-04-04 02:15:00,53.8,47.8,30.02,NNW,337,0.0,0.0,80,0.00,,,0.00,WUHU21623XXSP,2013-04-04 06:15:00,
2013-04-04 02:20:00,53.8,48.1,30.03,NNW,337,0.0,0.0,81,0.00,,,0.00,WUHU21623XXSP,2013-04-04 06:20:00,
2013-04-04 02:25:00,53.8,48.1,30.02,NNW,337,0.0,0.0,81,0.00,,,0.00,WUHU21623XXSP,2013-04-04 06:25:00,
2013-04-04 02:30:00,53.4,47.8,30.03,NNW,337,0.0,0.0,81,0.00,,,0.00,WUHU21623XXSP,2013-04-04 06:30:00,
2013-04-04 02:35:00,53.4,47.8,30.03,NNW,337,0.0,0.0,81,0.00,,,0.00,WUHU21623XXSP,2013-04-04 06:35:00,
2013-04-04 02:40:00,53.4,47.8,30.03,NNW,337,0.0,0.0,81,0.00,,,0.00,WUHU21623XXSP,2013-04-04 06:40:00,
2013-04-04 02:45:00,53.4,48.1,30.02,NNW,337,0.0,0.0,82,0.00,,,0.00,WUHU21623XXSP,2013-04-04 06:45:00,
2013-04-04 02:50:00,53.4,48.1,30.03,NNW,337,0.0,0.0,82,0.00,,,0.00,WUHU21623XXSP,2013-04-04 06:50:00,
2013-04-04 02:55:00,53.4,48.1,30.02,NNW,337,0.0,0.0,82,0.00,,,0.00,WUHU21623XXSP,2013-04-04 06:55:00,
2013-04-04 03:00:00,53.4,48.1,30.02,NNW,337,0.0,0.0,82,0.00,,,0.00,WUHU21623XXSP,2013-04-04 07:00:00,
2013-04-04 03:05:00,53.4,48.1,30.03,NNW,337,0.0,0.0,82,0.00,,,0.00,WUHU21623XXSP,2013-04-04 07:05:00,
2013-04-04 03:10:00,53.4,48.1,30.03,NNW,337,0.0,0.0,82,0.00,,,0.00,WUHU21623XXSP,2013-04-04 07:10:00,
2013-04-04 03:15:00,53.4,48.1,30.03,NNW,337,0.0,0.0,82,0.00,,,0.00,WUHU21623XXSP,2013-04-04 07:15:00,
2013-04-04 03:20:00,53.8,48.4,30.03,NNW,337,0.0,0.0,82,0.00,,,0.00,WUHU21623XXSP,2013-04-04 07:20:00,
2013-04-04 03:25:00,53.8,48.4,30.03,NNW,337,0.0,0.0,82,0.00,,,0.00,WUHU21623XXSP,2013-04-04 07:25:00,
2013-04-04 03:30:00,53.8,48.4,30.03,NNW,337,0.0,0.0,82,0.00,,,0.00,WUHU21623XXSP,2013-04-04 07:30:00,
2013-04-04 03:35:00,53.8,48.4,30.03,NNW,337,0.0,0.0,82,0.00,,,0.00,WUHU21623XXSP,2013-04-04 07:35:00,
2013-04-04 03:40:00,53.8,48.4,30.03,NNW,337,0.0,0.0,82,0.00,,,0.00,WUHU21623XXSP,2013-04-04 07:40:00,
2013-04-04 03:45:00,54.0,48.6,30.03,NNW,337,0.0,0.0,82,0.00,,,0.00,WUHU21623XXSP,2013-04-04 07:45:00,
2013-04-04 03:50:00,54.0,48.6,30.03,NNW,337,0.0,0.0,82,0.00,,,0.00,WUHU21623XXSP,2013-04-04 07:50:00,
2013-04-04 03:55:00,54.0,48.6,30.03,NNW,337,0.0,0.0,82,0.00,,,0.00,WUHU21623XXSP,2013-04-04 07:55:00,
2013-04-04 04:00:00,54.0,48.6,30.03,NNW,337,0.0,0.0,82,0.00,,,0.00,WUHU21623XXSP,2013-04-04 08:00:00,
2013-04-04 04:05:00,54.0,48.6,30.03,NNW,337,0.0,0.0,82,0.00,,,0.00,WUHU21623XXSP,2013-04-04 08:05:00,
2013-04-04 04:10:00,54.1,48.8,30.03,NNW,337,0.0,0.0,82,0.00,,,0.00,WUHU21623XXSP,2013-04-04 08:10:00,
2013-04-04 04:15:00,54.1,49.1,30.04,NNW,337,0.0,0.0,83,0.00,,,0.00,WUHU21623XXSP,2013-04-04 08:15:00,
2013-04-04 04:20:00,54.1,48.8,30.03,NNW,337,0.0,0.0,82,0.00,,,0.00,WUHU21623XXSP,2013-04-04 08:20:00,
2013-04-04 04:25:00,54.1,48.8,30.03,NNW,337,0.0,0.0,82,0.00,,,0.00,WUHU21623XXSP,2013-04-04 08:25:00,
2013-04-04 04:30:00,54.3,48.9,30.03,NNW,337,0.0,0.0,82,0.00,,,0.00,WUHU21623XXSP,2013-04-04 08:30:00,
2013-04-04 04:35:00,54.3,48.9,30.03,NNW,337,0.0,0.0,82,0.00,,,0.00,WUHU21623XXSP,2013-04-04 08:35:00,
2013-04-04 04:40:00,54.3,48.9,30.03,NNW,337,0.0,0.0,82,0.00,,,0.00,WUHU21623XXSP,2013-04-04 08:40:00,
2013-04-04 04:45:00,54.3,48.9,30.02,NNW,337,0.0,0.0,82,0.00,,,0.00,WUHU21623XXSP,2013-04-04 08:45:00,
2013-04-04 04:50:00,54.5,49.4,30.02,NNW,337,0.0,0.0,83,0.00,,,0.00,WUHU21623XXSP,2013-04-04 08:50:00,
2013-04-04 04:55:00,54.5,49.4,30.02,NNW,337,0.0,0.0,83,0.00,,,0.00,WUHU21623XXSP,2013-04-04 08:55:00,
2013-04-04 05:00:00,54.5,49.4,30.02,NNW,337,0.0,0.0,83,0.00,,,0.00,WUHU21623XXSP,2013-04-04 09:00:00,
2013-04-04 05:05:00,54.7,49.6,30.02,NNW,337,0.0,0.0,83,0.00,,,0.00,WUHU21623XXSP,2013-04-04 09:05:00,
2013-04-04 05:10:00,54.9,49.7,30.03,NNW,337,0.0,0.0,83,0.00,,,0.00,WUHU21623XXSP,2013-04-04 09:10:00,
2013-04-04 05:15:00,55.0,49.6,30.03,NNW,337,0.0,0.0,82,0.00,,,0.00,WUHU21623XXSP,2013-04-04 09:15:00,
2013-04-04 05:20:00,55.0,49.6,30.02,NNW,337,0.0,0.0,82,0.00,,,0.00,WUHU21623XXSP,2013-04-04 09:20:00,
2013-04-04 05:25:00,55.0,49.6,30.02,NNW,337,0.0,0.0,82,0.00,,,0.00,WUHU21623XXSP,2013-04-04 09:25:00,
2013-04-04 05:30:00,55.0,49.6,30.02,NNW,337,0.0,0.0,82,0.00,,,0.00,WUHU21623XXSP,2013-04-04 09:30:00,
2013-04-04 05:35:00,55.2,49.7,30.02,NNW,337,0.0,0.0,82,0.00,,,0.00,WUHU21623XXSP,2013-04-04 09:35:00,
2013-04-04 05:40:00,55.2,49.7,30.02,NNW,337,0.0,0.0,82,0.00,,,0.00,WUHU21623XXSP,2013-04-04 09:40:00,
2013-04-04 05:45:00,55.2,50.1,30.01,NNW,337,0.0,0.0,83,0.00,,,0.00,WUHU21623XXSP,2013-04-04 09:45:00,
2013-04-04 05:50:00,55.2,50.1,30.01,NNW,337,0.0,0.0,83,0.00,,,0.00,WUHU21623XXSP,2013-04-04 09:50:00,
2013-04-04 05:55:00,55.2,50.1,30.01,NNW,337,0.0,0.0,83,0.00,,,0.00,WUHU21623XXSP,2013-04-04 09:55:00,
2013-04-04 05:56:00,55.2,50.1,30.01,NNW,337,0.0,0.0,83,0.00,,,0.00,WUHU21623XXSP,2013-04-04 09:56:00,
2013-04-04 06:00:00,55.2,50.1,30.01,NNW,337,0.0,0.0,83,0.00,,,0.00,WUHU21623XXSP,2013-04-04 10:00:00,
2013-04-04 06:05:00,55.2,50.1,30.01,NNW,337,0.0,0.0,83,0.00,,,0.00,WUHU21623XXSP,2013-04-04 10:05:00,
2013-04-04 06:10:00,55.2,50.1,30.00,NNW,337,0.0,0.0,83,0.02,,,0.00,WUHU21623XXSP,2013-04-04 10:10:00,
2013-04-04 06:15:00,55.2,50.1,30.01,NNW,337,0.0,0.0,83,0.04,,,0.04,WUHU21623XXSP,2013-04-04 10:15:00,
2013-04-04 06:20:00,55.2,50.4,30.00,NNW,337,0.0,0.0,84,0.04,,,0.04,WUHU21623XXSP,2013-04-04 10:20:00,
2013-04-04 06:25:00,55.2,50.4,30.00,NNW,337,0.0,0.0,84,0.04,,,0.04,WUHU21623XXSP,2013-04-04 10:25:00,
2013-04-04 06:30:00,55.2,50.4,30.01,NNW,337,0.0,0.0,84,0.04,,,0.04,WUHU21623XXSP,2013-04-04 10:30:00,
2013-04-04 06:35:00,55.2,50.4,30.01,NNW,337,0.0,0.0,84,0.04,,,0.04,WUHU21623XXSP,2013-04-04 10:35:00,
2013-04-04 06:40:00,55.2,50.4,30.02,NW,315,0.0,0.0,84,0.06,,,0.06,WUHU21623XXSP,2013-04-04 10:40:00,
2013-04-04 06:45:00,55.2,50.7,30.02,NW,315,0.0,0.0,85,0.06,,,0.06,WUHU21623XXSP,2013-04-04 10:45:00,
2013-04-04 06:50:00,55.2,50.7,30.02,NW,315,0.0,0.0,85,0.06,,,0.06,WUHU21623XXSP,2013-04-04 10:50:00,
2013-04-04 06:55:00,55.2,50.7,30.02,NW,315,0.0,0.0,85,0.06,,,0.06,WUHU21623XXSP,2013-04-04 10:55:00,
2013-04-04 07:00:00,55.2,50.7,30.02,WNW,292,0.0,0.0,85,0.06,,,0.06,WUHU21623XXSP,2013-04-04 11:00:00,
2013-04-04 07:05:00,55.2,50.7,30.02,WNW,292,0.0,0.0,85,0.06,,,0.06,WUHU21623XXSP,2013-04-04 11:05:00,
2013-04-04 07:11:00,55.2,50.7,30.03,WNW,292,0.0,0.0,85,0.02,,,0.06,WUHU21623XXSP,2013-04-04 11:11:00,
2013-04-04 07:16:00,55.2,50.7,30.02,WNW,292,0.0,0.0,85,0.02,,,0.06,WUHU21623XXSP,2013-04-04 11:16:00,
2013-04-04 07:21:00,55.2,51.0,30.02,WNW,292,0.0,0.0,86,0.04,,,0.06,WUHU21623XXSP,2013-04-04 11:21:00,
2013-04-04 07:26:00,55.2,51.0,30.03,WNW,292,0.0,0.0,86,0.04,,,0.08,WUHU21623XXSP,2013-04-04 11:26:00,
2013-04-04 07:31:00,55.2,51.0,30.03,WNW,292,0.0,0.0,86,0.04,,,0.08,WUHU21623XXSP,2013-04-04 11:31:00,
2013-04-04 07:36:00,55.2,51.0,30.03,WNW,292,0.0,0.0,86,0.04,,,0.08,WUHU21623XXSP,2013-04-04 11:36:00,
2013-04-04 07:41:00,55.2,51.0,30.03,WNW,292,0.0,0.0,86,0.02,,,0.08,WUHU21623XXSP,2013-04-04 11:41:00,
2013-04-04 07:46:00,55.2,51.0,30.02,WNW,292,0.0,0.0,86,0.02,,,0.08,WUHU21623XXSP,2013-04-04 11:46:00,
2013-04-04 07:51:00,55.2,51.0,30.02,WNW,292,0.0,0.0,86,0.02,,,0.08,WUHU21623XXSP,2013-04-04 11:51:00,
2013-04-04 07:56:00,55.2,51.0,30.02,WNW,292,0.0,0.0,86,0.04,,,0.10,WUHU21623XXSP,2013-04-04 11:56:00,
2013-04-04 08:01:00,55.2,51.0,30.02,NW,315,0.0,0.0,86,0.04,,,0.10,WUHU21623XXSP,2013-04-04 12:01:00,
2013-04-04 08:06:00,55.2,51.0,30.02,NW,315,0.0,0.0,86,0.04,,,0.10,WUHU21623XXSP,2013-04-04 12:06:00,
2013-04-04 08:11:00,55.2,51.0,30.02,ESE,112,0.0,0.0,86,0.04,,,0.10,WUHU21623XXSP,2013-04-04 12:11:00,
2013-04-04 08:16:00,55.2,51.0,30.02,East,90,0.0,0.0,86,0.04,,,0.10,WUHU21623XXSP,2013-04-04 12:16:00,
2013-04-04 08:21:00,55.0,50.9,30.02,East,90,0.0,0.0,86,0.02,,,0.10,WUHU21623XXSP,2013-04-04 12:21:00,
2013-04-04 08:26:00,54.9,50.7,30.02,East,90,0.0,0.0,86,0.02,,,0.10,WUHU21623XXSP,2013-04-04 12:26:00,
2013-04-04 08:31:00,54.9,50.7,30.01,East,90,0.0,0.0,86,0.02,,,0.10,WUHU21623XXSP,2013-04-04 12:31:00,
2013-04-04 08:36:00,54.7,50.5,30.02,East,90,0.0,0.0,86,0.02,,,0.10,WUHU21623XXSP,2013-04-04 12:36:00,
2013-04-04 08:42:00,54.5,50.5,30.01,East,90,0.0,0.0,86,0.04,,,0.12,WUHU21623XXSP,2013-04-04 12:42:00,
2013-04-04 08:47:00,54.5,50.4,30.02,East,90,0.0,0.0,86,0.04,,,0.12,WUHU21623XXSP,2013-04-04 12:47:00,
2013-04-04 08:52:00,54.3,50.2,30.02,East,90,0.0,0.0,86,0.04,,,0.12,WUHU21623XXSP,2013-04-04 12:52:00,
2013-04-04 08:57:00,54.1,50.2,30.02,ESE,112,0.0,0.0,86,0.02,,,0.12,WUHU21623XXSP,2013-04-04 12:57:00,
2013-04-04 09:02:00,54.1,50.0,30.01,SE,135,0.0,0.0,86,0.02,,,0.12,WUHU21623XXSP,2013-04-04 13:02:00,
2013-04-04 09:07:00,54.0,49.8,30.01,SE,135,0.0,0.0,86,0.02,,,0.12,WUHU21623XXSP,2013-04-04 13:07:00,
2013-04-04 09:12:00,53.8,49.7,30.02,SE,135,0.0,0.0,86,0.04,,,0.12,WUHU21623XXSP,2013-04-04 13:12:00,
2013-04-04 09:17:00,53.8,49.7,30.01,SE,135,0.0,0.0,86,0.04,,,0.14,WUHU21623XXSP,2013-04-04 13:17:00,
2013-04-04 09:22:00,53.8,49.7,30.01,SE,135,0.0,0.0,86,0.04,,,0.14,WUHU21623XXSP,2013-04-04 13:22:00,
2013-04-04 09:27:00,53.6,49.7,30.01,SE,135,0.0,0.0,86,0.04,,,0.14,WUHU21623XXSP,2013-04-04 13:27:00,
2013-04-04 09:32:00,53.4,49.3,30.02,SE,135,0.0,0.0,86,0.06,,,0.16,WUHU21623XXSP,2013-04-04 13:32:00,
2013-04-04 09:37:00,53.6,49.5,30.02,East,90,0.0,0.0,86,0.04,,,0.16,WUHU21623XXSP,2013-04-04 13:37:00,
2013-04-04 09:42:00,53.8,49.5,30.02,East,90,0.0,0.0,86,0.04,,,0.16,WUHU21623XXSP,2013-04-04 13:42:00,
2013-04-04 09:47:00,53.8,49.5,30.02,East,90,0.0,0.0,86,0.04,,,0.16,WUHU21623XXSP,2013-04-04 13:47:00,
2013-04-04 09:52:00,53.8,49.7,30.02,East,90,0.0,0.0,86,0.04,,,0.16,WUHU21623XXSP,2013-04-04 13:52:00,
2013-04-04 09:57:00,53.8,50.0,30.02,East,90,0.0,0.0,87,0.04,,,0.16,WUHU21623XXSP,2013-04-04 13:57:00,
2013-04-04 10:02:00,53.8,50.0,30.02,SE,135,0.0,0.0,87,0.04,,,0.16,WUHU21623XXSP,2013-04-04 14:02:00,
2013-04-04 10:08:00,53.8,50.0,30.02,ESE,112,0.0,0.0,87,0.04,,,0.16,WUHU21623XXSP,2013-04-04 14:08:00,
2013-04-04 10:13:00,53.8,50.0,30.03,ENE,67,0.0,0.0,87,0.02,,,0.16,WUHU21623XXSP,2013-04-04 14:13:00,
2013-04-04 10:18:00,54.0,50.1,30.03,ENE,67,0.0,0.0,87,0.02,,,0.16,WUHU21623XXSP,2013-04-04 14:18:00,
2013-04-04 10:23:00,54.0,50.1,30.03,ESE,112,0.0,0.0,87,0.02,,,0.16,WUHU21623XXSP,2013-04-04 14:23:00,
2013-04-04 10:28:00,54.0,50.3,30.03,SE,135,0.0,0.0,87,0.00,,,0.16,WUHU21623XXSP,2013-04-04 14:28:00,
2013-04-04 10:33:00,54.1,50.3,30.03,SE,135,0.0,0.0,87,0.00,,,0.16,WUHU21623XXSP,2013-04-04 14:33:00,
2013-04-04 10:38:00,54.1,50.3,30.04,SE,135,0.0,0.0,87,0.00,,,0.16,WUHU21623XXSP,2013-04-04 14:38:00,
2013-04-04 10:43:00,54.1,50.3,30.04,SE,135,0.0,0.0,87,0.00,,,0.16,WUHU21623XXSP,2013-04-04 14:43:00,
2013-04-04 10:48:00,54.5,50.7,30.04,ENE,67,0.0,0.0,87,0.00,,,0.16,WUHU21623XXSP,2013-04-04 14:48:00,
2013-04-04 10:53:00,55.0,51.5,30.04,ENE,67,0.0,0.0,88,0.00,,,0.16,WUHU21623XXSP,2013-04-04 14:53:00,
2013-04-04 10:58:00,55.2,51.7,30.05,NNE,22,0.0,0.0,88,0.00,,,0.16,WUHU21623XXSP,2013-04-04 14:58:00,
2013-04-04 11:03:00,55.6,51.9,30.05,North,0,0.0,0.0,88,0.00,,,0.16,WUHU21623XXSP,2013-04-04 15:03:00,
2013-04-04 11:08:00,55.8,52.2,30.05,NNE,22,0.0,0.0,88,0.00,,,0.16,WUHU21623XXSP,2013-04-04 15:08:00,
2013-04-04 11:13:00,56.3,52.8,30.05,NNE,22,0.0,0.0,88,0.00,,,0.16,WUHU21623XXSP,2013-04-04 15:13:00,
2013-04-04 11:18:00,56.8,53.0,30.05,NNE,22,0.0,0.0,87,0.00,,,0.16,WUHU21623XXSP,2013-04-04 15:18:00,
2013-04-04 11:23:00,57.0,53.2,30.05,NNE,22,0.0,0.0,87,0.00,,,0.16,WUHU21623XXSP,2013-04-04 15:23:00,
2013-04-04 11:28:00,57.0,53.2,30.05,NNE,22,0.0,0.0,86,0.00,,,0.16,WUHU21623XXSP,2013-04-04 15:28:00,
2013-04-04 11:33:00,57.6,53.4,30.06,NNE,22,0.0,0.0,86,0.00,,,0.16,WUHU21623XXSP,2013-04-04 15:33:00,
2013-04-04 11:38:00,57.6,53.4,30.06,NNE,22,0.0,0.0,86,0.00,,,0.16,WUHU21623XXSP,2013-04-04 15:38:00,
2013-04-04 11:43:00,57.9,53.7,30.05,NNE,22,0.0,0.0,86,0.00,,,0.16,WUHU21623XXSP,2013-04-04 15:43:00,
2013-04-04 11:48:00,58.1,53.7,30.06,NNE,22,0.0,0.0,85,0.00,,,0.16,WUHU21623XXSP,2013-04-04 15:48:00,
2013-04-04 11:53:00,58.5,54.0,30.07,NNE,22,0.0,0.0,85,0.00,,,0.16,WUHU21623XXSP,2013-04-04 15:53:00,
2013-04-04 11:58:00,58.8,54.3,30.06,NNE,22,0.0,0.0,85,0.00,,,0.16,WUHU21623XXSP,2013-04-04 15:58:00,
2013-04-04 12:03:00,59.4,54.3,30.06,NNE,22,0.0,0.0,85,0.00,,,0.16,WUHU21623XXSP,2013-04-04 16:03:00,
2013-04-04 12:08:00,59.7,54.7,30.07,ENE,67,0.0,0.0,84,0.00,,,0.16,WUHU21623XXSP,2013-04-04 16:08:00,
2013-04-04 12:13:00,60.4,55.3,30.07,ENE,67,0.0,0.0,83,0.00,,,0.16,WUHU21623XXSP,2013-04-04 16:13:00,
2013-04-04 12:18:00,60.6,55.5,30.07,ENE,67,0.0,0.0,83,0.00,,,0.16,WUHU21623XXSP,2013-04-04 16:18:00,
2013-04-04 12:23:00,61.2,55.8,30.07,ENE,67,0.0,0.0,82,0.00,,,0.16,WUHU21623XXSP,2013-04-04 16:23:00,
2013-04-04 12:28:00,61.5,55.7,30.07,ESE,112,0.0,0.0,81,0.00,,,0.16,WUHU21623XXSP,2013-04-04 16:28:00,
2013-04-04 12:33:00,61.9,56.0,30.08,ESE,112,0.0,0.0,81,0.00,,,0.16,WUHU21623XXSP,2013-04-04 16:33:00,
2013-04-04 12:38:00,62.4,56.5,30.07,ESE,112,0.0,0.0,81,0.00,,,0.16,WUHU21623XXSP,2013-04-04 16:38:00,
2013-04-04 12:43:00,63.1,56.8,30.08,ESE,112,0.0,0.0,80,0.00,,,0.16,WUHU21623XXSP,2013-04-04 16:43:00,
2013-04-04 12:48:00,63.5,56.8,30.08,NNE,22,0.0,0.0,79,0.00,,,0.16,WUHU21623XXSP,2013-04-04 16:48:00,
2013-04-04 12:53:00,64.0,57.0,30.08,NNE,22,0.0,0.0,78,0.00,,,0.16,WUHU21623XXSP,2013-04-04 16:53:00,
2013-04-04 12:58:00,64.2,57.2,30.07,NNE,22,0.0,0.0,78,0.00,,,0.16,WUHU21623XXSP,2013-04-04 16:58:00,
2013-04-04 13:03:00,64.6,57.5,30.08,East,90,0.0,0.0,78,0.00,,,0.16,WUHU21623XXSP,2013-04-04 17:03:00,
2013-04-04 13:09:00,64.6,57.2,30.08,East,90,0.0,0.0,77,0.00,,,0.16,WUHU21623XXSP,2013-04-04 17:09:00,
2013-04-04 13:14:00,64.9,57.2,30.07,East,90,0.0,0.0,76,0.00,,,0.16,WUHU21623XXSP,2013-04-04 17:14:00,
2013-04-04 13:19:00,65.3,57.1,30.07,NNE,22,0.0,0.0,75,0.00,,,0.16,WUHU21623XXSP,2013-04-04 17:19:00,
2013-04-04 13:24:00,65.5,56.9,30.08,East,90,0.0,0.0,74,0.00,,,0.16,WUHU21623XXSP,2013-04-04 17:24:00,
2013-04-04 13:29:00,65.7,56.8,30.08,NNE,22,0.0,0.0,73,0.00,,,0.16,WUHU21623XXSP,2013-04-04 17:29:00,
2013-04-04 13:34:00,65.5,56.9,30.08,NNE,22,0.0,0.0,74,0.00,,,0.16,WUHU21623XXSP,2013-04-04 17:34:00,
2013-04-04 13:39:00,65.8,57.3,30.08,East,90,0.0,0.0,74,0.00,,,0.16,WUHU21623XXSP,2013-04-04 17:39:00,
2013-04-04 13:44:00,65.8,56.9,30.08,SSE,157,0.0,0.0,73,0.00,,,0.16,WUHU21623XXSP,2013-04-04 17:44:00,
2013-04-04 13:50:00,65.5,56.6,30.10,SE,135,0.0,0.0,73,0.00,,,0.16,WUHU21623XXSP,2013-04-04 17:50:00,
2013-04-04 13:55:00,65.5,56.6,30.09,SSE,157,0.0,0.0,73,0.00,,,0.16,WUHU21623XXSP,2013-04-04 17:55:00,
2013-04-04 14:00:00,66.2,57.1,30.09,SSE,157,0.0,0.0,73,0.00,,,0.16,WUHU21623XXSP,2013-04-04 18:00:00,
2013-04-04 14:05:00,67.1,57.8,30.09,SSE,157,0.0,0.0,72,0.00,,,0.16,WUHU21623XXSP,2013-04-04 18:05:00,
2013-04-04 14:10:00,67.8,58.1,30.09,ESE,112,0.0,0.0,71,0.00,,,0.16,WUHU21623XXSP,2013-04-04 18:10:00,
2013-04-04 14:15:00,68.4,57.8,30.09,ESE,112,0.0,0.0,69,0.00,,,0.16,WUHU21623XXSP,2013-04-04 18:15:00,
2013-04-04 14:20:00,68.5,58.0,30.09,ESE,112,0.0,0.0,69,0.00,,,0.16,WUHU21623XXSP,2013-04-04 18:20:00,
2013-04-04 14:25:00,68.7,57.3,30.08,NNE,22,0.0,2.5,67,0.00,,,0.16,WUHU21623XXSP,2013-04-04 18:25:00,
2013-04-04 14:30:00,68.9,57.5,30.08,ESE,112,0.0,2.5,67,0.00,,,0.16,WUHU21623XXSP,2013-04-04 18:30:00,
2013-04-04 14:35:00,69.1,57.2,30.09,SE,135,0.0,0.0,66,0.00,,,0.16,WUHU21623XXSP,2013-04-04 18:35:00,
2013-04-04 14:40:00,69.3,57.4,30.08,SSE,157,0.0,0.0,66,0.00,,,0.16,WUHU21623XXSP,2013-04-04 18:40:00,
2013-04-04 14:45:00,69.4,57.1,30.08,SE,135,0.0,7.4,65,0.00,,,0.16,WUHU21623XXSP,2013-04-04 18:45:00,
2013-04-04 14:50:00,69.6,57.3,30.08,SE,135,8.1,8.1,65,0.00,,,0.16,WUHU21623XXSP,2013-04-04 18:50:00,
2013-04-04 14:55:00,69.6,57.3,30.08,SW,225,0.0,8.1,65,0.00,,,0.16,WUHU21623XXSP,2013-04-04 18:55:00,
2013-04-04 15:00:00,70.2,58.2,30.08,SSE,157,0.0,0.0,66,0.00,,,0.16,WUHU21623XXSP,2013-04-04 19:00:00,
2013-04-04 15:05:00,70.2,57.8,30.09,SSE,157,0.0,0.0,65,0.00,,,0.16,WUHU21623XXSP,2013-04-04 19:05:00,
2013-04-04 15:10:00,70.3,57.6,30.08,SSE,157,0.0,0.0,64,0.00,,,0.16,WUHU21623XXSP,2013-04-04 19:10:00,
2013-04-04 15:15:00,70.0,56.8,30.08,SE,135,0.0,0.0,63,0.00,,,0.16,WUHU21623XXSP,2013-04-04 19:15:00,
2013-04-04 15:20:00,69.6,56.5,30.08,SE,135,0.0,0.0,63,0.00,,,0.16,WUHU21623XXSP,2013-04-04 19:20:00,
2013-04-04 15:25:00,69.4,56.3,30.09,SE,135,0.0,0.0,63,0.00,,,0.16,WUHU21623XXSP,2013-04-04 19:25:00,
2013-04-04 15:30:00,68.7,55.6,30.09,SE,135,0.0,0.0,63,0.00,,,0.16,WUHU21623XXSP,2013-04-04 19:30:00,
2013-04-04 15:35:00,68.5,55.8,30.09,SE,135,0.0,0.0,64,0.00,,,0.16,WUHU21623XXSP,2013-04-04 19:35:00,
2013-04-04 15:40:00,68.5,56.3,30.09,SE,135,0.0,0.0,65,0.00,,,0.16,WUHU21623XXSP,2013-04-04 19:40:00,
2013-04-04 15:45:00,68.7,56.9,30.08,SE,135,0.0,0.0,66,0.00,,,0.16,WUHU21623XXSP,2013-04-04 19:45:00,
2013-04-04 15:50:00,68.7,56.9,30.09,SE,135,0.0,0.0,66,0.00,,,0.16,WUHU21623XXSP,2013-04-04 19:50:00,
2013-04-04 15:55:00,69.1,56.8,30.08,SSE,157,0.0,0.0,65,0.00,,,0.16,WUHU21623XXSP,2013-04-04 19:55:00,
2013-04-04 16:00:00,69.4,57.1,30.08,South,180,0.0,0.0,65,0.00,,,0.16,WUHU21623XXSP,2013-04-04 20:00:00,
2013-04-04 16:05:00,69.6,57.3,30.09,South,180,0.0,0.0,65,0.00,,,0.16,WUHU21623XXSP,2013-04-04 20:05:00,
2013-04-04 16:10:00,69.6,56.9,30.09,South,180,0.0,0.0,64,0.00,,,0.16,WUHU21623XXSP,2013-04-04 20:10:00,
2013-04-04 16:15:00,70.2,57.4,30.08,South,180,0.0,0.0,64,0.00,,,0.16,WUHU21623XXSP,2013-04-04 20:15:00,
2013-04-04 16:20:00,70.7,57.5,30.08,SSE,157,0.0,0.0,63,0.00,,,0.16,WUHU21623XXSP,2013-04-04 20:20:00,
2013-04-04 16:25:00,71.2,57.5,30.08,SSE,157,0.0,0.0,62,0.00,,,0.16,WUHU21623XXSP,2013-04-04 20:25:00,
2013-04-04 16:30:00,72.1,57.5,30.08,SSE,157,0.0,0.0,60,0.00,,,0.16,WUHU21623XXSP,2013-04-04 20:30:00,
2013-04-04 16:35:00,72.1,57.5,30.08,SSE,157,0.0,0.0,60,0.00,,,0.16,WUHU21623XXSP,2013-04-04 20:35:00,
2013-04-04 16:40:00,72.3,57.2,30.08,SSE,157,0.0,0.0,59,0.00,,,0.16,WUHU21623XXSP,2013-04-04 20:40:00,
2013-04-04 16:45:00,72.9,58.2,30.08,SSE,157,0.0,0.0,60,0.00,,,0.16,WUHU21623XXSP,2013-04-04 20:45:00,
2013-04-04 16:50:00,73.2,58.0,30.08,SSE,157,0.0,0.0,59,0.00,,,0.16,WUHU21623XXSP,2013-04-04 20:50:00,
2013-04-04 16:55:00,73.2,58.0,30.07,SSE,157,0.0,0.0,59,0.00,,,0.16,WUHU21623XXSP,2013-04-04 20:55:00,
2013-04-04 17:00:00,73.9,58.2,30.08,SSE,157,0.0,0.0,58,0.00,,,0.16,WUHU21623XXSP,2013-04-04 21:00:00,
2013-04-04 17:05:00,74.3,58.0,30.07,SSE,157,0.0,0.0,57,0.00,,,0.16,WUHU21623XXSP,2013-04-04 21:05:00,
2013-04-04 17:10:00,74.5,58.2,30.07,SSW,202,4.3,4.3,57,0.00,,,0.16,WUHU21623XXSP,2013-04-04 21:10:00,
2013-04-04 17:15:00,75.2,58.4,30.06,South,180,0.0,4.3,56,0.00,,,0.16,WUHU21623XXSP,2013-04-04 21:15:00,
2013-04-04 17:20:00,75.4,58.6,30.07,SW,225,0.0,0.0,56,0.00,,,0.16,WUHU21623XXSP,2013-04-04 21:20:00,
2013-04-04 17:25:00,75.4,57.6,30.07,East,90,0.0,7.6,54,0.00,,,0.16,WUHU21623XXSP,2013-04-04 21:25:00,
2013-04-04 17:30:00,75.4,57.6,30.06,SSE,157,0.0,7.6,54,0.00,,,0.16,WUHU21623XXSP,2013-04-04 21:30:00,
2013-04-04 17:35:00,75.7,58.4,30.06,WSW,247,3.8,3.8,55,0.00,,,0.16,WUHU21623XXSP,2013-04-04 21:35:00,
2013-04-04 17:40:00,75.9,58.1,30.06,SW,225,7.6,7.6,54,0.00,,,0.16,WUHU21623XXSP,2013-04-04 21:40:00,
2013-04-04 17:45:00,75.9,58.1,30.06,ESE,112,3.8,7.6,54,0.00,,,0.16,WUHU21623XXSP,2013-04-04 21:45:00,
2013-04-04 17:50:00,76.1,58.2,30.06,SW,225,3.1,3.8,54,0.00,,,0.16,WUHU21623XXSP,2013-04-04 21:50:00,
2013-04-04 17:55:00,76.1,57.7,30.06,ESE,112,4.3,4.7,53,0.00,,,0.16,WUHU21623XXSP,2013-04-04 21:55:00,
2013-04-04 18:00:00,75.9,58.1,30.05,SW,225,7.2,7.2,54,0.00,,,0.16,WUHU21623XXSP,2013-04-04 22:00:00,
2013-04-04 18:05:00,75.9,57.6,30.05,SSW,202,2.9,7.2,53,0.00,,,0.16,WUHU21623XXSP,2013-04-04 22:05:00,
2013-04-04 18:10:00,75.9,57.6,30.05,SSW,202,0.0,8.7,53,0.00,,,0.16,WUHU21623XXSP,2013-04-04 22:10:00,
2013-04-04 18:15:00,75.9,57.6,30.05,South,180,4.7,8.7,53,0.00,,,0.16,WUHU21623XXSP,2013-04-04 22:15:00,
2013-04-04 18:20:00,75.9,57.1,30.05,SSW,202,2.9,6.9,52,0.00,,,0.16,WUHU21623XXSP,2013-04-04 22:20:00,
2013-04-04 18:25:00,75.9,57.1,30.05,SSW,202,8.5,8.5,52,0.00,,,0.16,WUHU21623XXSP,2013-04-04 22:25:00,
2013-04-04 18:30:00,75.7,56.4,30.05,SSW,202,0.0,8.5,51,0.00,,,0.16,WUHU21623XXSP,2013-04-04 22:30:00,
2013-04-04 18:35:00,75.7,56.9,30.05,SE,135,0.0,2.2,52,0.00,,,0.16,WUHU21623XXSP,2013-04-04 22:35:00,
2013-04-04 18:40:00,75.4,56.6,30.05,SW,225,7.8,7.8,52,0.00,,,0.16,WUHU21623XXSP,2013-04-04 22:40:00,
2013-04-04 18:45:00,75.0,56.2,30.05,SW,225,0.0,9.4,52,0.00,,,0.16,WUHU21623XXSP,2013-04-04 22:45:00,
2013-04-04 18:50:00,75.0,56.2,30.05,SSW,202,0.0,9.4,52,0.00,,,0.16,WUHU21623XXSP,2013-04-04 22:50:00,
2013-04-04 18:55:00,74.8,56.6,30.05,South,180,2.9,3.8,53,0.00,,,0.16,WUHU21623XXSP,2013-04-04 22:55:00,
2013-04-04 19:00:00,74.7,56.4,30.06,SW,225,10.3,10.3,53,0.00,,,0.16,WUHU21623XXSP,2013-04-04 23:00:00,
2013-04-04 19:05:00,74.5,56.2,30.06,SW,225,7.6,10.3,53,0.00,,,0.16,WUHU21623XXSP,2013-04-04 23:05:00,
2013-04-04 19:10:00,73.9,55.7,30.06,SE,135,5.4,8.3,53,0.00,,,0.16,WUHU21623XXSP,2013-04-04 23:10:00,
2013-04-04 19:15:00,73.6,55.8,30.06,SW,225,9.4,9.4,54,0.00,,,0.16,WUHU21623XXSP,2013-04-04 23:15:00,
2013-04-04 19:20:00,73.2,55.6,30.06,SSW,202,0.0,9.4,54,0.00,,,0.16,WUHU21623XXSP,2013-04-04 23:20:00,
2013-04-04 19:25:00,73.0,55.8,30.06,SSW,202,0.0,7.8,55,0.00,,,0.16,WUHU21623XXSP,2013-04-04 23:25:00,
2013-04-04 19:30:00,72.7,55.5,30.06,SE,135,0.0,8.3,55,0.00,,,0.16,WUHU21623XXSP,2013-04-04 23:30:00,
2013-04-04 19:35:00,72.1,55.0,30.06,SW,225,3.6,8.3,55,0.00,,,0.16,WUHU21623XXSP,2013-04-04 23:35:00,
2013-04-04 19:40:00,71.6,55.0,30.06,SSW,202,5.4,6.7,56,0.00,,,0.16,WUHU21623XXSP,2013-04-04 23:40:00,
2013-04-04 19:45:00,71.2,54.7,30.06,SW,225,0.0,5.4,56,0.00,,,0.16,WUHU21623XXSP,2013-04-04 23:45:00,
2013-04-04 19:50:00,70.9,54.4,30.06,SSW,202,0.0,6.3,56,0.00,,,0.16,WUHU21623XXSP,2013-04-04 23:50:00,
2013-04-04 19:55:00,70.3,54.4,30.06,SSW,202,0.0,6.3,57,0.00,,,0.16,WUHU21623XXSP,2013-04-04 23:55:00,
2013-04-04 20:00:00,70.2,54.7,30.06,SW,225,0.0,1.6,58,0.00,,,0.16,WUHU21623XXSP,2013-04-05 00:00:00,
2013-04-04 20:05:00,70.0,54.6,30.06,SSW,202,4.3,4.3,58,0.00,,,0.16,WUHU21623XXSP,2013-04-05 00:05:00,
2013-04-04 20:10:00,69.6,54.2,30.06,WSW,247,4.7,4.7,58,0.00,,,0.16,WUHU21623XXSP,2013-04-05 00:10:00,
2013-04-04 20:15:00,69.3,53.9,30.06,WSW,247,0.0,4.7,58,0.00,,,0.16,WUHU21623XXSP,2013-04-05 00:15:00,
2013-04-04 20:20:00,68.7,53.8,30.06,SSE,157,8.3,8.3,59,0.00,,,0.16,WUHU21623XXSP,2013-04-05 00:20:00,
2013-04-04 20:25:00,68.2,53.3,30.07,SSE,157,7.6,8.3,59,0.00,,,0.16,WUHU21623XXSP,2013-04-05 00:25:00,
2013-04-04 20:30:00,68.2,53.8,30.06,SSW,202,5.6,7.6,60,0.00,,,0.16,WUHU21623XXSP,2013-04-05 00:30:00,
2013-04-04 20:35:00,68.5,54.1,30.06,SW,225,0.2,5.6,60,0.00,,,0.16,WUHU21623XXSP,2013-04-05 00:35:00,
2013-04-04 20:40:00,68.7,54.3,30.06,South,180,0.0,6.5,60,0.00,,,0.16,WUHU21623XXSP,2013-04-05 00:40:00,
2013-04-04 20:45:00,68.7,54.3,30.06,SSW,202,6.0,6.5,60,0.00,,,0.16,WUHU21623XXSP,2013-04-05 00:45:00,
2013-04-04 20:50:00,68.5,54.1,30.06,South,180,6.3,9.2,60,0.00,,,0.16,WUHU21623XXSP,2013-04-05 00:50:00,
2013-04-04 20:56:00,68.2,53.8,30.05,South,180,6.7,9.2,60,0.00,,,0.16,WUHU21623XXSP,2013-04-05 00:56:00,
2013-04-04 21:01:00,67.8,53.4,30.05,SSE,157,7.2,7.2,60,0.00,,,0.16,WUHU21623XXSP,2013-04-05 01:01:00,
2013-04-04 21:05:00,67.6,53.7,30.06,SW,225,6.5,7.2,61,0.00,,,0.16,WUHU21623XXSP,2013-04-05 01:05:00,
2013-04-04 21:10:00,66.9,53.2,30.05,South,180,0.0,10.1,61,0.00,,,0.16,WUHU21623XXSP,2013-04-05 01:10:00,
2013-04-04 21:15:00,66.6,53.1,30.05,SW,225,1.8,10.1,62,0.00,,,0.16,WUHU21623XXSP,2013-04-05 01:15:00,
2013-04-04 21:20:00,66.0,52.6,30.05,SSW,202,0.0,1.8,62,0.00,,,0.16,WUHU21623XXSP,2013-04-05 01:20:00,
2013-04-04 21:25:00,65.3,51.9,30.05,SSW,202,0.0,0.0,62,0.00,,,0.16,WUHU21623XXSP,2013-04-05 01:25:00,
2013-04-04 21:31:00,65.1,52.2,30.06,NW,315,6.9,6.9,63,0.00,,,0.16,WUHU21623XXSP,2013-04-05 01:31:00,
2013-04-04 21:35:00,64.6,52.1,30.06,SW,225,7.2,8.7,64,0.00,,,0.16,WUHU21623XXSP,2013-04-05 01:35:00,
2013-04-04 21:41:00,63.9,51.8,30.06,SSW,202,8.3,8.7,65,0.00,,,0.16,WUHU21623XXSP,2013-04-05 01:41:00,
2013-04-04 21:45:00,63.5,51.5,30.06,SSE,157,4.9,8.3,65,0.00,,,0.16,WUHU21623XXSP,2013-04-05 01:45:00,
2013-04-04 21:51:00,63.1,51.5,30.06,SW,225,4.3,7.2,66,0.00,,,0.16,WUHU21623XXSP,2013-04-05 01:51:00,
2013-04-04 21:56:00,62.8,51.6,30.06,SW,225,2.0,8.7,67,0.00,,,0.16,WUHU21623XXSP,2013-04-05 01:56:00,
2013-04-04 22:01:00,62.4,51.3,30.06,SSW,202,0.0,8.7,67,0.00,,,0.16,WUHU21623XXSP,2013-04-05 02:01:00,
2013-04-04 22:06:00,62.1,51.4,30.06,South,180,3.4,5.4,68,0.00,,,0.16,WUHU21623XXSP,2013-04-05 02:06:00,
2013-04-04 22:11:00,61.7,51.1,30.06,SW,225,5.1,5.1,68,0.00,,,0.16,WUHU21623XXSP,2013-04-05 02:11:00,
2013-04-04 22:16:00,61.5,51.3,30.06,SSW,202,7.2,7.2,69,0.00,,,0.16,WUHU21623XXSP,2013-04-05 02:16:00,
2013-04-04 22:21:00,61.3,51.2,30.06,SW,225,0.0,7.2,69,0.00,,,0.16,WUHU21623XXSP,2013-04-05 02:21:00,
2013-04-04 22:26:00,61.0,51.2,30.06,SSW,202,1.6,5.4,70,0.00,,,0.16,WUHU21623XXSP,2013-04-05 02:26:00,
2013-04-04 22:31:00,60.6,50.9,30.06,SSW,202,5.4,5.4,70,0.00,,,0.16,WUHU21623XXSP,2013-04-05 02:31:00,
2013-04-04 22:36:00,60.4,51.1,30.07,SSW,202,7.4,7.8,71,0.00,,,0.16,WUHU21623XXSP,2013-04-05 02:36:00,
2013-04-04 22:41:00,60.1,50.7,30.07,SW,225,6.3,7.8,71,0.00,,,0.16,WUHU21623XXSP,2013-04-05 02:41:00,
2013-04-04 22:46:00,60.1,51.1,30.07,SSW,202,4.3,7.8,72,0.00,,,0.16,WUHU21623XXSP,2013-04-05 02:46:00,
2013-04-04 22:50:00,59.7,50.7,30.07,SSW,202,2.9,7.2,72,0.00,,,0.16,WUHU21623XXSP,2013-04-05 02:50:00,
2013-04-04 22:55:00,59.5,50.9,30.07,WSW,247,0.0,2.9,73,0.00,,,0.16,WUHU21623XXSP,2013-04-05 02:55:00,
2013-04-04 23:01:00,59.5,50.5,30.07,SSW,202,0.0,0.0,72,0.00,,,0.16,WUHU21623XXSP,2013-04-05 03:01:00,
2013-04-04 23:06:00,59.4,50.7,30.08,SSW,202,7.8,7.8,73,0.00,,,0.16,WUHU21623XXSP,2013-04-05 03:06:00,
2013-04-04 23:10:00,59.2,50.5,30.08,West,270,0.0,7.8,73,0.00,,,0.16,WUHU21623XXSP,2013-04-05 03:10:00,
2013-04-04 23:15:00,59.0,50.4,30.08,SW,225,2.7,4.7,73,0.00,,,0.16,WUHU21623XXSP,2013-04-05 03:15:00,
2013-04-04 23:20:00,59.0,50.7,30.08,SW,225,3.4,7.6,74,0.00,,,0.16,WUHU21623XXSP,2013-04-05 03:20:00,
2013-04-04 23:26:00,59.0,50.7,30.08,SW,225,0.0,7.6,74,0.00,,,0.16,WUHU21623XXSP,2013-04-05 03:26:00,
2013-04-04 23:31:00,58.8,50.5,30.08,SW,225,0.0,7.6,74,0.00,,,0.16,WUHU21623XXSP,2013-04-05 03:31:00,
2013-04-04 23:36:00,58.8,50.9,30.08,SW,225,0.0,0.0,75,0.00,,,0.16,WUHU21623XXSP,2013-04-05 03:36:00,
2013-04-04 23:41:00,58.8,50.9,30.08,SW,225,0.0,0.0,75,0.00,,,0.16,WUHU21623XXSP,2013-04-05 03:41:00,
2013-04-04 23:46:00,58.8,50.9,30.08,SSW,202,0.0,0.0,75,0.00,,,0.16,WUHU21623XXSP,2013-04-05 03:46:00,
2013-04-04 23:51:00,58.8,50.9,30.08,SSW,202,0.0,0.0,75,0.00,,,0.16,WUHU21623XXSP,2013-04-05 03:51:00,
2013-04-04 23:56:00,58.8,50.9,30.08,SW,225,0.0,0.0,75,0.00,,,0.16,WUHU21623XXSP,2013-04-05 03:56:00,